Aviation Digital Data Service (ADDS)

Output produced by TAFs form (1950 UTC 14 August 2018)
found at http://www.aviationweather.gov/adds/tafs/
 
KMCO 141853Z 17009KT 130V200 10SM SCT049 SCT250 33/22 A3005 RMK AO2 SLP175 T03280222
KMCO 141740Z 1418/1524 19008KT P6SM SCT040 SCT250 
     FM142000 18008KT P6SM VCTS SCT045CB SCT080 BKN250 
     TEMPO 1420/1423 2SM TSRA BKN030CB BKN060 
     FM150100 18005KT P6SM FEW040 SCT100 BKN250 
     FM151400 16005KT P6SM SCT025